sensor_id;sensor_type;location;lat;lon;timestamp;temperature;humidity
50738;DHT22;36703;48.154;17.126;2022-07-24T00:02:07;31.20;39.30
50738;DHT22;36703;48.154;17.126;2022-07-24T00:06:08;31.10;39.20
50738;DHT22;36703;48.154;17.126;2022-07-24T00:10:10;31.00;39.50
50738;DHT22;36703;48.154;17.126;2022-07-24T00:14:12;31.00;39.70
50738;DHT22;36703;48.154;17.126;2022-07-24T00:18:13;30.90;39.70
50738;DHT22;36703;48.154;17.126;2022-07-24T00:22:14;30.80;39.80
50738;DHT22;36703;48.154;17.126;2022-07-24T00:26:16;30.80;40.00
50738;DHT22;36703;48.154;17.126;2022-07-24T00:30:17;30.70;40.10
50738;DHT22;36703;48.154;17.126;2022-07-24T00:34:18;30.70;40.30
50738;DHT22;36703;48.154;17.126;2022-07-24T00:38:20;30.60;40.40
50738;DHT22;36703;48.154;17.126;2022-07-24T00:42:21;30.60;40.40
50738;DHT22;36703;48.154;17.126;2022-07-24T00:46:22;30.60;40.30
50738;DHT22;36703;48.154;17.126;2022-07-24T00:50:25;30.50;40.40
50738;DHT22;36703;48.154;17.126;2022-07-24T00:54:26;30.40;40.40
50738;DHT22;36703;48.154;17.126;2022-07-24T00:58:28;30.40;40.50
50738;DHT22;36703;48.154;17.126;2022-07-24T01:02:29;30.40;40.50
50738;DHT22;36703;48.154;17.126;2022-07-24T01:06:30;30.40;40.50
50738;DHT22;36703;48.154;17.126;2022-07-24T01:10:32;30.40;40.50
50738;DHT22;36703;48.154;17.126;2022-07-24T01:14:34;30.40;40.70
50738;DHT22;36703;48.154;17.126;2022-07-24T01:18:36;30.40;40.70
50738;DHT22;36703;48.154;17.126;2022-07-24T01:22:38;30.40;40.80
50738;DHT22;36703;48.154;17.126;2022-07-24T01:26:39;30.30;41.00
50738;DHT22;36703;48.154;17.126;2022-07-24T01:30:40;30.30;41.10
50738;DHT22;36703;48.154;17.126;2022-07-24T01:34:42;30.30;41.20
50738;DHT22;36703;48.154;17.126;2022-07-24T01:38:44;30.30;41.30
50738;DHT22;36703;48.154;17.126;2022-07-24T01:42:45;30.30;41.40
50738;DHT22;36703;48.154;17.126;2022-07-24T01:46:46;30.10;41.40
50738;DHT22;36703;48.154;17.126;2022-07-24T01:50:47;30.10;41.80
50738;DHT22;36703;48.154;17.126;2022-07-24T01:54:49;30.10;41.80
50738;DHT22;36703;48.154;17.126;2022-07-24T01:58:50;29.90;41.70
50738;DHT22;36703;48.154;17.126;2022-07-24T02:02:51;29.80;41.90
50738;DHT22;36703;48.154;17.126;2022-07-24T02:06:52;29.80;42.10
50738;DHT22;36703;48.154;17.126;2022-07-24T02:10:54;29.80;42.20
50738;DHT22;36703;48.154;17.126;2022-07-24T02:14:55;29.80;42.30
50738;DHT22;36703;48.154;17.126;2022-07-24T02:18:56;29.80;42.10
50738;DHT22;36703;48.154;17.126;2022-07-24T02:22:57;29.80;42.80
50738;DHT22;36703;48.154;17.126;2022-07-24T02:26:59;29.80;42.80
50738;DHT22;36703;48.154;17.126;2022-07-24T02:31:00;29.70;42.30
50738;DHT22;36703;48.154;17.126;2022-07-24T02:35:01;29.60;43.00
50738;DHT22;36703;48.154;17.126;2022-07-24T02:39:03;29.50;42.50
50738;DHT22;36703;48.154;17.126;2022-07-24T02:43:05;29.50;42.60
50738;DHT22;36703;48.154;17.126;2022-07-24T02:47:06;29.50;42.60
50738;DHT22;36703;48.154;17.126;2022-07-24T02:51:07;29.50;42.60
50738;DHT22;36703;48.154;17.126;2022-07-24T02:55:09;29.60;42.80
50738;DHT22;36703;48.154;17.126;2022-07-24T02:59:11;29.60;42.80
50738;DHT22;36703;48.154;17.126;2022-07-24T03:03:12;29.50;42.90
50738;DHT22;36703;48.154;17.126;2022-07-24T03:07:14;29.50;43.10
50738;DHT22;36703;48.154;17.126;2022-07-24T03:11:15;29.50;43.20
50738;DHT22;36703;48.154;17.126;2022-07-24T03:15:17;29.60;43.40
50738;DHT22;36703;48.154;17.126;2022-07-24T03:19:18;29.60;43.50
50738;DHT22;36703;48.154;17.126;2022-07-24T03:23:20;29.50;43.60
50738;DHT22;36703;48.154;17.126;2022-07-24T03:27:21;29.30;43.90
50738;DHT22;36703;48.154;17.126;2022-07-24T03:31:23;29.30;44.00
50738;DHT22;36703;48.154;17.126;2022-07-24T03:35:24;29.30;44.20
50738;DHT22;36703;48.154;17.126;2022-07-24T03:39:25;29.30;44.40
50738;DHT22;36703;48.154;17.126;2022-07-24T03:43:26;29.30;44.50
50738;DHT22;36703;48.154;17.126;2022-07-24T03:47:28;29.10;44.70
50738;DHT22;36703;48.154;17.126;2022-07-24T03:51:29;29.10;45.00
50738;DHT22;36703;48.154;17.126;2022-07-24T03:55:30;29.00;45.10
50738;DHT22;36703;48.154;17.126;2022-07-24T03:59:32;28.90;45.30
50738;DHT22;36703;48.154;17.126;2022-07-24T04:03:34;29.00;45.60
50738;DHT22;36703;48.154;17.126;2022-07-24T04:07:36;29.00;45.60
50738;DHT22;36703;48.154;17.126;2022-07-24T04:11:37;28.90;45.60
50738;DHT22;36703;48.154;17.126;2022-07-24T04:15:39;28.90;45.80
50738;DHT22;36703;48.154;17.126;2022-07-24T04:19:40;28.90;45.80
50738;DHT22;36703;48.154;17.126;2022-07-24T04:23:41;29.00;45.80
50738;DHT22;36703;48.154;17.126;2022-07-24T04:27:43;29.00;45.70
50738;DHT22;36703;48.154;17.126;2022-07-24T04:31:44;29.00;45.70
50738;DHT22;36703;48.154;17.126;2022-07-24T04:35:46;29.10;45.60
50738;DHT22;36703;48.154;17.126;2022-07-24T04:39:47;29.10;45.60
50738;DHT22;36703;48.154;17.126;2022-07-24T04:43:48;29.10;45.60
50738;DHT22;36703;48.154;17.126;2022-07-24T04:47:50;29.10;45.60
50738;DHT22;36703;48.154;17.126;2022-07-24T04:51:52;29.10;45.60
50738;DHT22;36703;48.154;17.126;2022-07-24T04:55:53;29.20;45.70
50738;DHT22;36703;48.154;17.126;2022-07-24T04:59:54;29.20;45.70
50738;DHT22;36703;48.154;17.126;2022-07-24T05:03:56;29.20;45.70
50738;DHT22;36703;48.154;17.126;2022-07-24T05:07:57;29.10;45.90
50738;DHT22;36703;48.154;17.126;2022-07-24T05:11:58;28.90;46.20
50738;DHT22;36703;48.154;17.126;2022-07-24T05:16:00;28.70;46.40
50738;DHT22;36703;48.154;17.126;2022-07-24T05:20:02;28.50;46.80
50738;DHT22;36703;48.154;17.126;2022-07-24T05:24:05;28.40;47.10
50738;DHT22;36703;48.154;17.126;2022-07-24T05:28:07;28.30;47.30
50738;DHT22;36703;48.154;17.126;2022-07-24T05:32:08;28.30;47.60
50738;DHT22;36703;48.154;17.126;2022-07-24T05:36:10;28.30;47.80
50738;DHT22;36703;48.154;17.126;2022-07-24T05:40:11;28.30;47.80
50738;DHT22;36703;48.154;17.126;2022-07-24T05:44:13;28.40;47.80
50738;DHT22;36703;48.154;17.126;2022-07-24T05:48:14;28.20;48.00
50738;DHT22;36703;48.154;17.126;2022-07-24T05:52:16;28.10;48.20
50738;DHT22;36703;48.154;17.126;2022-07-24T05:56:17;28.10;48.40
50738;DHT22;36703;48.154;17.126;2022-07-24T06:00:18;28.10;48.50
50738;DHT22;36703;48.154;17.126;2022-07-24T06:04:19;28.10;48.60
50738;DHT22;36703;48.154;17.126;2022-07-24T06:08:21;28.20;48.60
50738;DHT22;36703;48.154;17.126;2022-07-24T06:12:22;28.20;48.70
50738;DHT22;36703;48.154;17.126;2022-07-24T06:16:24;28.20;48.70
50738;DHT22;36703;48.154;17.126;2022-07-24T06:20:25;28.20;48.70
50738;DHT22;36703;48.154;17.126;2022-07-24T06:24:26;28.20;48.70
50738;DHT22;36703;48.154;17.126;2022-07-24T06:28:27;28.30;48.80
50738;DHT22;36703;48.154;17.126;2022-07-24T06:32:29;28.30;48.80
50738;DHT22;36703;48.154;17.126;2022-07-24T06:36:30;28.30;48.80
50738;DHT22;36703;48.154;17.126;2022-07-24T06:40:32;28.30;48.90
50738;DHT22;36703;48.154;17.126;2022-07-24T06:44:34;28.40;49.00
50738;DHT22;36703;48.154;17.126;2022-07-24T06:48:37;28.40;48.80
50738;DHT22;36703;48.154;17.126;2022-07-24T06:52:39;28.40;48.70
50738;DHT22;36703;48.154;17.126;2022-07-24T06:56:41;28.40;48.70
50738;DHT22;36703;48.154;17.126;2022-07-24T07:00:43;28.40;48.80
50738;DHT22;36703;48.154;17.126;2022-07-24T07:04:44;28.40;48.70
50738;DHT22;36703;48.154;17.126;2022-07-24T07:08:45;28.40;48.80
50738;DHT22;36703;48.154;17.126;2022-07-24T07:12:47;28.50;48.70
50738;DHT22;36703;48.154;17.126;2022-07-24T07:16:48;28.50;48.50
50738;DHT22;36703;48.154;17.126;2022-07-24T07:20:50;28.50;48.50
50738;DHT22;36703;48.154;17.126;2022-07-24T07:24:54;28.50;48.40
50738;DHT22;36703;48.154;17.126;2022-07-24T07:28:55;28.50;48.40
50738;DHT22;36703;48.154;17.126;2022-07-24T07:32:56;28.60;48.40
50738;DHT22;36703;48.154;17.126;2022-07-24T07:36:58;28.60;48.40
50738;DHT22;36703;48.154;17.126;2022-07-24T07:40:59;28.70;48.40
50738;DHT22;36703;48.154;17.126;2022-07-24T07:45:01;28.90;48.40
50738;DHT22;36703;48.154;17.126;2022-07-24T07:49:03;29.00;48.30
50738;DHT22;36703;48.154;17.126;2022-07-24T07:53:04;29.00;48.10
50738;DHT22;36703;48.154;17.126;2022-07-24T07:57:06;29.00;47.90
50738;DHT22;36703;48.154;17.126;2022-07-24T08:01:07;29.20;47.80
50738;DHT22;36703;48.154;17.126;2022-07-24T08:05:08;29.20;47.60
50738;DHT22;36703;48.154;17.126;2022-07-24T08:09:10;29.40;47.50
50738;DHT22;36703;48.154;17.126;2022-07-24T08:13:11;29.50;47.30
50738;DHT22;36703;48.154;17.126;2022-07-24T08:17:13;29.60;47.00
50738;DHT22;36703;48.154;17.126;2022-07-24T08:21:14;29.60;46.60
50738;DHT22;36703;48.154;17.126;2022-07-24T08:25:16;29.60;46.30
50738;DHT22;36703;48.154;17.126;2022-07-24T08:29:17;29.60;46.10
50738;DHT22;36703;48.154;17.126;2022-07-24T08:33:19;29.70;45.90
50738;DHT22;36703;48.154;17.126;2022-07-24T08:37:20;29.80;45.60
50738;DHT22;36703;48.154;17.126;2022-07-24T08:41:22;29.90;45.40
50738;DHT22;36703;48.154;17.126;2022-07-24T08:45:23;30.00;45.10
50738;DHT22;36703;48.154;17.126;2022-07-24T08:49:26;30.00;44.50
50738;DHT22;36703;48.154;17.126;2022-07-24T08:53:31;30.10;44.30
50738;DHT22;36703;48.154;17.126;2022-07-24T08:57:33;30.10;44.00
50738;DHT22;36703;48.154;17.126;2022-07-24T09:01:34;30.20;43.60
50738;DHT22;36703;48.154;17.126;2022-07-24T09:05:59;30.30;42.80
50738;DHT22;36703;48.154;17.126;2022-07-24T09:10:15;30.40;42.20
50738;DHT22;36703;48.154;17.126;2022-07-24T09:14:17;30.40;41.80
50738;DHT22;36703;48.154;17.126;2022-07-24T09:18:34;30.60;41.50
50738;DHT22;36703;48.154;17.126;2022-07-24T09:22:38;30.60;41.20
50738;DHT22;36703;48.154;17.126;2022-07-24T09:26:50;30.70;40.90
50738;DHT22;36703;48.154;17.126;2022-07-24T09:31:02;30.70;40.20
50738;DHT22;36703;48.154;17.126;2022-07-24T09:35:04;30.80;39.30
50738;DHT22;36703;48.154;17.126;2022-07-24T09:39:06;30.80;38.90
50738;DHT22;36703;48.154;17.126;2022-07-24T09:47:33;31.10;36.90
50738;DHT22;36703;48.154;17.126;2022-07-24T09:51:34;31.20;36.10
50738;DHT22;36703;48.154;17.126;2022-07-24T09:55:37;31.60;35.50
50738;DHT22;36703;48.154;17.126;2022-07-24T09:59:38;32.10;35.00
50738;DHT22;36703;48.154;17.126;2022-07-24T10:03:43;32.70;34.60
50738;DHT22;36703;48.154;17.126;2022-07-24T10:07:47;33.20;33.80
50738;DHT22;36703;48.154;17.126;2022-07-24T10:11:52;33.80;33.30
50738;DHT22;36703;48.154;17.126;2022-07-24T10:20:23;34.40;32.60
50738;DHT22;36703;48.154;17.126;2022-07-24T10:29:23;34.60;31.80
50738;DHT22;36703;48.154;17.126;2022-07-24T10:33:26;34.90;31.50
50738;DHT22;36703;48.154;17.126;2022-07-24T10:42:03;34.60;31.30
50738;DHT22;36703;48.154;17.126;2022-07-24T10:50:08;33.80;31.50
50738;DHT22;36703;48.154;17.126;2022-07-24T10:54:17;33.50;31.60
50738;DHT22;36703;48.154;17.126;2022-07-24T10:58:19;33.40;31.50
50738;DHT22;36703;48.154;17.126;2022-07-24T11:02:28;33.50;31.30
50738;DHT22;36703;48.154;17.126;2022-07-24T11:06:49;33.60;31.50
50738;DHT22;36703;48.154;17.126;2022-07-24T11:10:53;33.60;31.10
50738;DHT22;36703;48.154;17.126;2022-07-24T11:14:58;33.50;30.90
50738;DHT22;36703;48.154;17.126;2022-07-24T11:23:21;33.20;30.40
50738;DHT22;36703;48.154;17.126;2022-07-24T11:27:23;33.10;30.20
50738;DHT22;36703;48.154;17.126;2022-07-24T11:31:24;33.00;30.30
50738;DHT22;36703;48.154;17.126;2022-07-24T11:35:33;33.00;30.60
50738;DHT22;36703;48.154;17.126;2022-07-24T11:39:38;33.00;30.60
50738;DHT22;36703;48.154;17.126;2022-07-24T11:43:51;33.00;30.00
50738;DHT22;36703;48.154;17.126;2022-07-24T11:47:53;33.00;29.60
50738;DHT22;36703;48.154;17.126;2022-07-24T11:51:56;33.00;29.40
50738;DHT22;36703;48.154;17.126;2022-07-24T11:56:04;32.90;28.80
50738;DHT22;36703;48.154;17.126;2022-07-24T12:00:14;32.90;28.50
50738;DHT22;36703;48.154;17.126;2022-07-24T12:04:21;33.00;28.50
50738;DHT22;36703;48.154;17.126;2022-07-24T12:08:23;32.90;28.40
50738;DHT22;36703;48.154;17.126;2022-07-24T12:12:30;33.00;28.40
50738;DHT22;36703;48.154;17.126;2022-07-24T12:16:35;33.10;31.70
50738;DHT22;36703;48.154;17.126;2022-07-24T12:20:40;33.10;28.20
50738;DHT22;36703;48.154;17.126;2022-07-24T12:24:43;33.20;28.20
50738;DHT22;36703;48.154;17.126;2022-07-24T12:28:44;33.20;28.20
50738;DHT22;36703;48.154;17.126;2022-07-24T12:37:16;33.20;27.80
50738;DHT22;36703;48.154;17.126;2022-07-24T12:41:20;33.20;27.60
50738;DHT22;36703;48.154;17.126;2022-07-24T12:45:23;33.20;27.80
50738;DHT22;36703;48.154;17.126;2022-07-24T12:49:43;33.20;27.80
50738;DHT22;36703;48.154;17.126;2022-07-24T12:53:53;33.20;27.50
50738;DHT22;36703;48.154;17.126;2022-07-24T12:58:00;33.20;27.50
50738;DHT22;36703;48.154;17.126;2022-07-24T13:02:05;33.30;27.80
50738;DHT22;36703;48.154;17.126;2022-07-24T13:06:07;33.20;27.10
50738;DHT22;36703;48.154;17.126;2022-07-24T13:10:08;33.20;27.20
50738;DHT22;36703;48.154;17.126;2022-07-24T13:14:11;33.20;27.30
50738;DHT22;36703;48.154;17.126;2022-07-24T13:18:14;33.20;27.30
50738;DHT22;36703;48.154;17.126;2022-07-24T13:22:16;33.20;27.50
50738;DHT22;36703;48.154;17.126;2022-07-24T13:26:18;33.20;27.60
50738;DHT22;36703;48.154;17.126;2022-07-24T13:30:20;33.20;28.00
50738;DHT22;36703;48.154;17.126;2022-07-24T13:34:21;33.20;27.50
50738;DHT22;36703;48.154;17.126;2022-07-24T13:38:23;33.20;27.50
50738;DHT22;36703;48.154;17.126;2022-07-24T13:42:24;33.20;27.60
50738;DHT22;36703;48.154;17.126;2022-07-24T13:46:29;33.10;28.90
50738;DHT22;36703;48.154;17.126;2022-07-24T13:50:31;33.10;27.80
50738;DHT22;36703;48.154;17.126;2022-07-24T13:54:33;33.10;27.80
50738;DHT22;36703;48.154;17.126;2022-07-24T13:58:34;33.20;27.90
50738;DHT22;36703;48.154;17.126;2022-07-24T14:02:37;33.20;27.90
50738;DHT22;36703;48.154;17.126;2022-07-24T14:06:38;33.10;27.80
50738;DHT22;36703;48.154;17.126;2022-07-24T14:10:40;33.10;27.90
50738;DHT22;36703;48.154;17.126;2022-07-24T14:14:41;33.10;28.00
50738;DHT22;36703;48.154;17.126;2022-07-24T14:18:43;33.10;28.10
50738;DHT22;36703;48.154;17.126;2022-07-24T14:22:44;33.10;28.00
50738;DHT22;36703;48.154;17.126;2022-07-24T14:26:47;33.10;27.90
50738;DHT22;36703;48.154;17.126;2022-07-24T14:30:49;33.10;27.90
50738;DHT22;36703;48.154;17.126;2022-07-24T14:34:51;33.10;27.80
50738;DHT22;36703;48.154;17.126;2022-07-24T14:38:52;33.00;27.80
50738;DHT22;36703;48.154;17.126;2022-07-24T14:42:53;33.10;27.90
50738;DHT22;36703;48.154;17.126;2022-07-24T14:46:55;33.10;28.00
50738;DHT22;36703;48.154;17.126;2022-07-24T14:50:57;33.10;28.00
50738;DHT22;36703;48.154;17.126;2022-07-24T14:54:58;33.10;28.10
50738;DHT22;36703;48.154;17.126;2022-07-24T14:59:02;33.10;28.00
50738;DHT22;36703;48.154;17.126;2022-07-24T15:03:04;33.10;27.80
50738;DHT22;36703;48.154;17.126;2022-07-24T15:07:06;33.10;27.80
50738;DHT22;36703;48.154;17.126;2022-07-24T15:11:07;33.10;27.80
50738;DHT22;36703;48.154;17.126;2022-07-24T15:15:09;33.10;27.80
50738;DHT22;36703;48.154;17.126;2022-07-24T15:19:10;33.10;27.80
50738;DHT22;36703;48.154;17.126;2022-07-24T15:23:12;33.00;27.80
50738;DHT22;36703;48.154;17.126;2022-07-24T15:27:13;33.00;27.80
50738;DHT22;36703;48.154;17.126;2022-07-24T15:31:15;33.00;28.00
50738;DHT22;36703;48.154;17.126;2022-07-24T15:35:17;32.90;27.90
50738;DHT22;36703;48.154;17.126;2022-07-24T15:39:19;32.90;27.90
50738;DHT22;36703;48.154;17.126;2022-07-24T15:43:20;32.90;27.90
50738;DHT22;36703;48.154;17.126;2022-07-24T15:47:21;32.90;27.90
50738;DHT22;36703;48.154;17.126;2022-07-24T15:51:23;32.90;27.70
50738;DHT22;36703;48.154;17.126;2022-07-24T15:55:25;32.90;27.70
50738;DHT22;36703;48.154;17.126;2022-07-24T15:59:26;32.90;27.70
50738;DHT22;36703;48.154;17.126;2022-07-24T16:03:27;32.90;27.70
50738;DHT22;36703;48.154;17.126;2022-07-24T16:07:30;32.90;27.60
50738;DHT22;36703;48.154;17.126;2022-07-24T16:11:31;33.00;27.60
50738;DHT22;36703;48.154;17.126;2022-07-24T16:15:34;33.00;27.60
50738;DHT22;36703;48.154;17.126;2022-07-24T16:19:38;33.00;27.60
50738;DHT22;36703;48.154;17.126;2022-07-24T16:23:39;32.90;27.40
50738;DHT22;36703;48.154;17.126;2022-07-24T16:27:40;32.90;27.40
50738;DHT22;36703;48.154;17.126;2022-07-24T16:31:42;32.90;27.40
50738;DHT22;36703;48.154;17.126;2022-07-24T16:35:44;32.90;27.40
50738;DHT22;36703;48.154;17.126;2022-07-24T16:39:45;32.90;27.40
50738;DHT22;36703;48.154;17.126;2022-07-24T16:43:46;32.90;27.30
50738;DHT22;36703;48.154;17.126;2022-07-24T16:47:47;32.80;27.30
50738;DHT22;36703;48.154;17.126;2022-07-24T16:51:49;32.80;27.20
50738;DHT22;36703;48.154;17.126;2022-07-24T16:55:50;32.80;27.20
50738;DHT22;36703;48.154;17.126;2022-07-24T16:59:52;32.80;27.30
50738;DHT22;36703;48.154;17.126;2022-07-24T17:03:53;32.70;27.30
50738;DHT22;36703;48.154;17.126;2022-07-24T17:07:54;32.70;27.30
50738;DHT22;36703;48.154;17.126;2022-07-24T17:11:55;32.70;27.80
50738;DHT22;36703;48.154;17.126;2022-07-24T17:15:58;32.70;27.30
50738;DHT22;36703;48.154;17.126;2022-07-24T17:19:59;32.60;27.30
50738;DHT22;36703;48.154;17.126;2022-07-24T17:24:01;32.60;27.30
50738;DHT22;36703;48.154;17.126;2022-07-24T17:28:04;32.50;27.20
50738;DHT22;36703;48.154;17.126;2022-07-24T17:32:07;32.50;27.20
50738;DHT22;36703;48.154;17.126;2022-07-24T17:36:08;32.50;27.30
50738;DHT22;36703;48.154;17.126;2022-07-24T17:40:10;32.50;27.40
50738;DHT22;36703;48.154;17.126;2022-07-24T17:44:11;32.50;27.40
50738;DHT22;36703;48.154;17.126;2022-07-24T17:48:13;32.40;27.30
50738;DHT22;36703;48.154;17.126;2022-07-24T17:52:14;32.40;27.40
50738;DHT22;36703;48.154;17.126;2022-07-24T17:56:16;32.40;27.50
50738;DHT22;36703;48.154;17.126;2022-07-24T18:00:17;32.30;27.40
50738;DHT22;36703;48.154;17.126;2022-07-24T18:04:19;32.30;27.40
50738;DHT22;36703;48.154;17.126;2022-07-24T18:08:21;32.20;27.50
50738;DHT22;36703;48.154;17.126;2022-07-24T18:12:23;32.20;27.60
50738;DHT22;36703;48.154;17.126;2022-07-24T18:16:24;32.10;27.70
50738;DHT22;36703;48.154;17.126;2022-07-24T18:20:26;32.10;27.80
50738;DHT22;36703;48.154;17.126;2022-07-24T18:24:27;32.10;27.80
50738;DHT22;36703;48.154;17.126;2022-07-24T18:28:28;32.00;27.80
50738;DHT22;36703;48.154;17.126;2022-07-24T18:32:29;32.00;27.90
50738;DHT22;36703;48.154;17.126;2022-07-24T18:36:31;31.90;27.90
50738;DHT22;36703;48.154;17.126;2022-07-24T18:40:32;31.90;27.90
50738;DHT22;36703;48.154;17.126;2022-07-24T18:44:34;31.80;28.00
50738;DHT22;36703;48.154;17.126;2022-07-24T18:48:35;31.80;28.10
50738;DHT22;36703;48.154;17.126;2022-07-24T18:52:40;31.70;28.20
50738;DHT22;36703;48.154;17.126;2022-07-24T18:56:42;31.60;28.30
50738;DHT22;36703;48.154;17.126;2022-07-24T19:00:43;31.60;28.40
50738;DHT22;36703;48.154;17.126;2022-07-24T19:04:44;31.60;28.50
50738;DHT22;36703;48.154;17.126;2022-07-24T19:08:46;31.50;28.80
50738;DHT22;36703;48.154;17.126;2022-07-24T19:12:47;31.50;29.20
50738;DHT22;36703;48.154;17.126;2022-07-24T19:16:49;31.50;29.60
50738;DHT22;36703;48.154;17.126;2022-07-24T19:20:50;31.50;29.80
50738;DHT22;36703;48.154;17.126;2022-07-24T19:24:51;31.40;29.90
50738;DHT22;36703;48.154;17.126;2022-07-24T19:28:53;31.40;30.20
50738;DHT22;36703;48.154;17.126;2022-07-24T19:32:54;31.40;30.40
50738;DHT22;36703;48.154;17.126;2022-07-24T19:36:55;31.30;30.60
50738;DHT22;36703;48.154;17.126;2022-07-24T19:40:57;31.30;31.20
50738;DHT22;36703;48.154;17.126;2022-07-24T19:44:58;31.20;31.70
50738;DHT22;36703;48.154;17.126;2022-07-24T19:48:59;31.20;31.90
50738;DHT22;36703;48.154;17.126;2022-07-24T19:53:01;31.20;32.10
50738;DHT22;36703;48.154;17.126;2022-07-24T19:57:02;31.10;32.20
50738;DHT22;36703;48.154;17.126;2022-07-24T20:01:03;31.10;33.00
50738;DHT22;36703;48.154;17.126;2022-07-24T20:05:05;31.10;32.40
50738;DHT22;36703;48.154;17.126;2022-07-24T20:09:07;31.10;32.40
50738;DHT22;36703;48.154;17.126;2022-07-24T20:13:09;31.00;31.90
50738;DHT22;36703;48.154;17.126;2022-07-24T20:17:10;30.90;31.40
50738;DHT22;36703;48.154;17.126;2022-07-24T20:21:11;30.90;31.20
50738;DHT22;36703;48.154;17.126;2022-07-24T20:25:14;30.90;31.20
50738;DHT22;36703;48.154;17.126;2022-07-24T20:29:17;30.90;31.30
50738;DHT22;36703;48.154;17.126;2022-07-24T20:33:18;30.90;31.60
50738;DHT22;36703;48.154;17.126;2022-07-24T20:37:20;30.90;31.50
50738;DHT22;36703;48.154;17.126;2022-07-24T20:41:21;30.90;31.20
50738;DHT22;36703;48.154;17.126;2022-07-24T20:45:22;30.90;31.00
50738;DHT22;36703;48.154;17.126;2022-07-24T20:49:24;30.90;31.00
50738;DHT22;36703;48.154;17.126;2022-07-24T20:53:25;30.90;31.20
50738;DHT22;36703;48.154;17.126;2022-07-24T20:57:27;30.80;31.10
50738;DHT22;36703;48.154;17.126;2022-07-24T21:01:28;30.80;31.00
50738;DHT22;36703;48.154;17.126;2022-07-24T21:05:29;30.80;31.00
50738;DHT22;36703;48.154;17.126;2022-07-24T21:09:32;30.70;31.00
50738;DHT22;36703;48.154;17.126;2022-07-24T21:13:33;30.60;30.80
50738;DHT22;36703;48.154;17.126;2022-07-24T21:17:35;30.60;30.80
50738;DHT22;36703;48.154;17.126;2022-07-24T21:21:36;30.40;30.70
50738;DHT22;36703;48.154;17.126;2022-07-24T21:25:37;30.30;30.90
50738;DHT22;36703;48.154;17.126;2022-07-24T21:29:38;30.30;31.10
50738;DHT22;36703;48.154;17.126;2022-07-24T21:33:41;30.30;31.20
50738;DHT22;36703;48.154;17.126;2022-07-24T21:37:42;30.20;31.30
50738;DHT22;36703;48.154;17.126;2022-07-24T21:41:44;30.10;31.40
50738;DHT22;36703;48.154;17.126;2022-07-24T21:45:45;30.10;31.50
50738;DHT22;36703;48.154;17.126;2022-07-24T21:49:46;30.10;31.60
50738;DHT22;36703;48.154;17.126;2022-07-24T21:53:47;30.00;31.50
50738;DHT22;36703;48.154;17.126;2022-07-24T21:57:49;29.90;31.50
50738;DHT22;36703;48.154;17.126;2022-07-24T22:01:50;29.90;31.60
50738;DHT22;36703;48.154;17.126;2022-07-24T22:05:52;29.80;31.80
50738;DHT22;36703;48.154;17.126;2022-07-24T22:09:54;29.80;32.20
50738;DHT22;36703;48.154;17.126;2022-07-24T22:13:56;29.80;32.30
50738;DHT22;36703;48.154;17.126;2022-07-24T22:17:57;29.70;32.30
50738;DHT22;36703;48.154;17.126;2022-07-24T22:21:58;29.70;32.40
50738;DHT22;36703;48.154;17.126;2022-07-24T22:26:00;29.70;32.40
50738;DHT22;36703;48.154;17.126;2022-07-24T22:30:03;29.60;32.60
50738;DHT22;36703;48.154;17.126;2022-07-24T22:34:05;29.60;32.70
50738;DHT22;36703;48.154;17.126;2022-07-24T22:38:07;29.60;32.80
50738;DHT22;36703;48.154;17.126;2022-07-24T22:42:09;29.50;32.90
50738;DHT22;36703;48.154;17.126;2022-07-24T22:46:12;29.50;33.00
50738;DHT22;36703;48.154;17.126;2022-07-24T22:50:14;29.50;33.20
50738;DHT22;36703;48.154;17.126;2022-07-24T22:54:16;29.50;33.40
50738;DHT22;36703;48.154;17.126;2022-07-24T22:58:18;29.40;33.40
50738;DHT22;36703;48.154;17.126;2022-07-24T23:02:20;29.50;33.50
50738;DHT22;36703;48.154;17.126;2022-07-24T23:06:21;29.40;33.60
50738;DHT22;36703;48.154;17.126;2022-07-24T23:10:23;29.40;33.70
50738;DHT22;36703;48.154;17.126;2022-07-24T23:14:24;29.30;33.70
50738;DHT22;36703;48.154;17.126;2022-07-24T23:18:26;29.30;33.80
50738;DHT22;36703;48.154;17.126;2022-07-24T23:22:27;29.30;33.70
50738;DHT22;36703;48.154;17.126;2022-07-24T23:26:28;29.30;33.60
50738;DHT22;36703;48.154;17.126;2022-07-24T23:30:29;29.30;33.70
50738;DHT22;36703;48.154;17.126;2022-07-24T23:34:31;29.40;33.80
50738;DHT22;36703;48.154;17.126;2022-07-24T23:38:32;29.50;33.70
50738;DHT22;36703;48.154;17.126;2022-07-24T23:42:34;29.50;33.20
50738;DHT22;36703;48.154;17.126;2022-07-24T23:46:35;29.60;33.00
50738;DHT22;36703;48.154;17.126;2022-07-24T23:50:37;29.70;32.80
50738;DHT22;36703;48.154;17.126;2022-07-24T23:54:38;29.60;32.50
50738;DHT22;36703;48.154;17.126;2022-07-24T23:58:40;29.70;32.50
